sensor_id;sensor_type;location;lat;lon;timestamp;temperature;humidity
12853;DHT22;6495;51.808;7.478;2024-03-29T00:00:12;8.50;99.90
12853;DHT22;6495;51.808;7.478;2024-03-29T00:02:40;8.40;99.90
12853;DHT22;6495;51.808;7.478;2024-03-29T00:05:07;8.40;99.90
12853;DHT22;6495;51.808;7.478;2024-03-29T00:07:34;8.40;99.90
12853;DHT22;6495;51.808;7.478;2024-03-29T00:10:00;8.40;99.90
12853;DHT22;6495;51.808;7.478;2024-03-29T00:12:27;8.40;99.90
12853;DHT22;6495;51.808;7.478;2024-03-29T00:14:55;8.40;99.90
12853;DHT22;6495;51.808;7.478;2024-03-29T00:17:21;8.40;99.90
12853;DHT22;6495;51.808;7.478;2024-03-29T00:19:48;8.40;99.90
12853;DHT22;6495;51.808;7.478;2024-03-29T00:22:14;8.40;99.90
12853;DHT22;6495;51.808;7.478;2024-03-29T00:24:40;8.40;99.90
12853;DHT22;6495;51.808;7.478;2024-03-29T00:27:07;8.40;99.90
12853;DHT22;6495;51.808;7.478;2024-03-29T00:29:34;8.40;99.90
12853;DHT22;6495;51.808;7.478;2024-03-29T00:32:02;8.40;99.90
12853;DHT22;6495;51.808;7.478;2024-03-29T00:34:29;8.40;99.90
12853;DHT22;6495;51.808;7.478;2024-03-29T00:36:55;8.40;99.90
12853;DHT22;6495;51.808;7.478;2024-03-29T00:39:22;8.40;99.90
12853;DHT22;6495;51.808;7.478;2024-03-29T00:41:48;8.40;99.90
12853;DHT22;6495;51.808;7.478;2024-03-29T00:44:14;8.40;99.90
12853;DHT22;6495;51.808;7.478;2024-03-29T00:46:41;8.40;99.90
12853;DHT22;6495;51.808;7.478;2024-03-29T00:49:09;8.40;99.90
12853;DHT22;6495;51.808;7.478;2024-03-29T00:51:35;8.40;99.90
12853;DHT22;6495;51.808;7.478;2024-03-29T00:54:02;8.40;99.90
12853;DHT22;6495;51.808;7.478;2024-03-29T00:56:28;8.40;99.90
12853;DHT22;6495;51.808;7.478;2024-03-29T00:58:55;8.40;99.90
12853;DHT22;6495;51.808;7.478;2024-03-29T01:01:21;8.40;99.90
12853;DHT22;6495;51.808;7.478;2024-03-29T01:03:48;8.40;99.90
12853;DHT22;6495;51.808;7.478;2024-03-29T01:06:16;8.40;99.90
12853;DHT22;6495;51.808;7.478;2024-03-29T01:08:42;8.40;99.90
12853;DHT22;6495;51.808;7.478;2024-03-29T01:11:09;8.40;99.90
12853;DHT22;6495;51.808;7.478;2024-03-29T01:13:35;8.40;99.90
12853;DHT22;6495;51.808;7.478;2024-03-29T01:16:02;8.40;99.90
12853;DHT22;6495;51.808;7.478;2024-03-29T01:18:29;8.40;99.90
12853;DHT22;6495;51.808;7.478;2024-03-29T01:20:55;8.40;99.90
12853;DHT22;6495;51.808;7.478;2024-03-29T01:23:23;8.40;99.90
12853;DHT22;6495;51.808;7.478;2024-03-29T01:25:50;8.40;99.90
12853;DHT22;6495;51.808;7.478;2024-03-29T01:28:16;8.40;99.90
12853;DHT22;6495;51.808;7.478;2024-03-29T01:30:51;8.40;99.90
12853;DHT22;6495;51.808;7.478;2024-03-29T01:33:18;8.40;99.90
12853;DHT22;6495;51.808;7.478;2024-03-29T01:35:45;8.40;99.90
12853;DHT22;6495;51.808;7.478;2024-03-29T01:38:11;8.40;99.90
12853;DHT22;6495;51.808;7.478;2024-03-29T01:40:39;8.40;99.90
12853;DHT22;6495;51.808;7.478;2024-03-29T01:43:06;8.50;99.90
12853;DHT22;6495;51.808;7.478;2024-03-29T01:45:35;8.50;99.90
12853;DHT22;6495;51.808;7.478;2024-03-29T01:48:05;8.50;99.90
12853;DHT22;6495;51.808;7.478;2024-03-29T01:50:33;8.50;99.90
12853;DHT22;6495;51.808;7.478;2024-03-29T01:53:01;8.50;99.90
12853;DHT22;6495;51.808;7.478;2024-03-29T01:55:29;8.50;99.90
12853;DHT22;6495;51.808;7.478;2024-03-29T01:57:59;8.50;99.90
12853;DHT22;6495;51.808;7.478;2024-03-29T02:00:26;8.50;99.90
12853;DHT22;6495;51.808;7.478;2024-03-29T02:02:57;8.60;99.90
12853;DHT22;6495;51.808;7.478;2024-03-29T02:05:25;8.60;99.90
12853;DHT22;6495;51.808;7.478;2024-03-29T02:07:54;8.60;99.90
12853;DHT22;6495;51.808;7.478;2024-03-29T02:10:23;8.60;99.90
12853;DHT22;6495;51.808;7.478;2024-03-29T02:12:49;8.60;99.90
12853;DHT22;6495;51.808;7.478;2024-03-29T02:15:18;8.60;99.90
12853;DHT22;6495;51.808;7.478;2024-03-29T02:17:44;8.60;99.90
12853;DHT22;6495;51.808;7.478;2024-03-29T02:20:11;8.60;99.90
12853;DHT22;6495;51.808;7.478;2024-03-29T02:22:44;8.60;99.90
12853;DHT22;6495;51.808;7.478;2024-03-29T02:25:18;8.60;99.90
12853;DHT22;6495;51.808;7.478;2024-03-29T02:27:45;8.60;99.90
12853;DHT22;6495;51.808;7.478;2024-03-29T02:30:13;8.60;99.90
12853;DHT22;6495;51.808;7.478;2024-03-29T02:32:41;8.60;99.90
12853;DHT22;6495;51.808;7.478;2024-03-29T02:35:09;8.60;99.90
12853;DHT22;6495;51.808;7.478;2024-03-29T02:37:36;8.60;99.90
12853;DHT22;6495;51.808;7.478;2024-03-29T02:40:05;8.60;99.90
12853;DHT22;6495;51.808;7.478;2024-03-29T02:42:37;8.60;99.90
12853;DHT22;6495;51.808;7.478;2024-03-29T02:45:05;8.70;99.90
12853;DHT22;6495;51.808;7.478;2024-03-29T02:47:33;8.70;99.90
12853;DHT22;6495;51.808;7.478;2024-03-29T02:50:01;8.70;99.90
12853;DHT22;6495;51.808;7.478;2024-03-29T02:52:27;8.60;99.90
12853;DHT22;6495;51.808;7.478;2024-03-29T02:54:55;8.70;99.90
12853;DHT22;6495;51.808;7.478;2024-03-29T02:57:22;8.70;99.90
12853;DHT22;6495;51.808;7.478;2024-03-29T02:59:51;8.60;99.90
12853;DHT22;6495;51.808;7.478;2024-03-29T03:02:17;8.60;99.90
12853;DHT22;6495;51.808;7.478;2024-03-29T03:04:44;8.70;99.90
12853;DHT22;6495;51.808;7.478;2024-03-29T03:07:11;8.70;99.90
12853;DHT22;6495;51.808;7.478;2024-03-29T03:09:56;8.70;99.90
12853;DHT22;6495;51.808;7.478;2024-03-29T03:12:56;8.70;99.90
12853;DHT22;6495;51.808;7.478;2024-03-29T03:15:24;8.60;99.90
12853;DHT22;6495;51.808;7.478;2024-03-29T03:17:52;8.60;99.90
12853;DHT22;6495;51.808;7.478;2024-03-29T03:20:19;8.60;99.90
12853;DHT22;6495;51.808;7.478;2024-03-29T03:22:46;8.60;99.90
12853;DHT22;6495;51.808;7.478;2024-03-29T03:25:13;8.60;99.90
12853;DHT22;6495;51.808;7.478;2024-03-29T03:27:40;8.60;99.90
12853;DHT22;6495;51.808;7.478;2024-03-29T03:30:08;8.60;99.90
12853;DHT22;6495;51.808;7.478;2024-03-29T03:32:36;8.60;99.90
12853;DHT22;6495;51.808;7.478;2024-03-29T03:35:05;8.60;99.90
12853;DHT22;6495;51.808;7.478;2024-03-29T03:37:31;8.60;99.90
12853;DHT22;6495;51.808;7.478;2024-03-29T03:39:59;8.60;99.90
12853;DHT22;6495;51.808;7.478;2024-03-29T03:42:25;8.60;99.90
12853;DHT22;6495;51.808;7.478;2024-03-29T03:44:52;8.60;99.90
12853;DHT22;6495;51.808;7.478;2024-03-29T03:47:19;8.60;99.90
12853;DHT22;6495;51.808;7.478;2024-03-29T03:49:47;8.60;99.90
12853;DHT22;6495;51.808;7.478;2024-03-29T03:52:15;8.60;99.90
12853;DHT22;6495;51.808;7.478;2024-03-29T03:54:41;8.70;99.90
12853;DHT22;6495;51.808;7.478;2024-03-29T03:57:09;8.70;99.90
12853;DHT22;6495;51.808;7.478;2024-03-29T03:59:35;8.80;99.90
12853;DHT22;6495;51.808;7.478;2024-03-29T04:02:02;8.80;99.90
12853;DHT22;6495;51.808;7.478;2024-03-29T04:04:29;8.80;99.90
12853;DHT22;6495;51.808;7.478;2024-03-29T04:06:57;8.90;99.90
12853;DHT22;6495;51.808;7.478;2024-03-29T04:09:24;8.90;99.90
12853;DHT22;6495;51.808;7.478;2024-03-29T04:11:51;8.90;99.90
12853;DHT22;6495;51.808;7.478;2024-03-29T04:14:17;8.90;99.90
12853;DHT22;6495;51.808;7.478;2024-03-29T04:16:46;8.90;99.90
12853;DHT22;6495;51.808;7.478;2024-03-29T04:19:13;9.00;99.90
12853;DHT22;6495;51.808;7.478;2024-03-29T04:21:40;9.00;99.90
12853;DHT22;6495;51.808;7.478;2024-03-29T04:24:08;9.00;99.90
12853;DHT22;6495;51.808;7.478;2024-03-29T04:26:35;9.00;99.90
12853;DHT22;6495;51.808;7.478;2024-03-29T04:29:02;9.00;99.90
12853;DHT22;6495;51.808;7.478;2024-03-29T04:31:30;9.00;99.90
12853;DHT22;6495;51.808;7.478;2024-03-29T04:33:56;9.00;99.90
12853;DHT22;6495;51.808;7.478;2024-03-29T04:36:23;9.00;99.90
12853;DHT22;6495;51.808;7.478;2024-03-29T04:38:50;9.00;99.90
12853;DHT22;6495;51.808;7.478;2024-03-29T04:41:18;9.00;99.90
12853;DHT22;6495;51.808;7.478;2024-03-29T04:43:46;9.00;99.90
12853;DHT22;6495;51.808;7.478;2024-03-29T04:46:14;9.00;99.90
12853;DHT22;6495;51.808;7.478;2024-03-29T04:48:42;9.00;99.90
12853;DHT22;6495;51.808;7.478;2024-03-29T04:51:12;9.00;99.90
12853;DHT22;6495;51.808;7.478;2024-03-29T04:53:39;9.00;99.90
12853;DHT22;6495;51.808;7.478;2024-03-29T04:56:07;8.90;99.90
12853;DHT22;6495;51.808;7.478;2024-03-29T04:58:36;8.90;99.90
12853;DHT22;6495;51.808;7.478;2024-03-29T05:01:03;8.90;99.90
12853;DHT22;6495;51.808;7.478;2024-03-29T05:03:31;8.90;99.90
12853;DHT22;6495;51.808;7.478;2024-03-29T05:05:58;8.80;99.90
12853;DHT22;6495;51.808;7.478;2024-03-29T05:08:26;8.80;99.90
12853;DHT22;6495;51.808;7.478;2024-03-29T05:10:53;8.80;99.90
12853;DHT22;6495;51.808;7.478;2024-03-29T05:13:20;8.70;99.90
12853;DHT22;6495;51.808;7.478;2024-03-29T05:15:49;8.70;99.90
12853;DHT22;6495;51.808;7.478;2024-03-29T05:18:17;8.70;99.90
12853;DHT22;6495;51.808;7.478;2024-03-29T05:20:44;8.70;99.90
12853;DHT22;6495;51.808;7.478;2024-03-29T05:23:16;8.70;99.90
12853;DHT22;6495;51.808;7.478;2024-03-29T05:25:43;8.70;99.90
12853;DHT22;6495;51.808;7.478;2024-03-29T05:28:11;8.70;99.90
12853;DHT22;6495;51.808;7.478;2024-03-29T05:30:38;8.70;99.90
12853;DHT22;6495;51.808;7.478;2024-03-29T05:33:07;8.70;99.90
12853;DHT22;6495;51.808;7.478;2024-03-29T05:35:34;8.70;99.90
12853;DHT22;6495;51.808;7.478;2024-03-29T05:38:01;8.60;99.90
12853;DHT22;6495;51.808;7.478;2024-03-29T05:40:29;8.60;99.90
12853;DHT22;6495;51.808;7.478;2024-03-29T05:42:56;8.60;99.90
12853;DHT22;6495;51.808;7.478;2024-03-29T05:45:25;8.60;99.90
12853;DHT22;6495;51.808;7.478;2024-03-29T05:47:54;8.60;99.90
12853;DHT22;6495;51.808;7.478;2024-03-29T05:50:24;8.60;99.90
12853;DHT22;6495;51.808;7.478;2024-03-29T05:52:52;8.60;99.90
12853;DHT22;6495;51.808;7.478;2024-03-29T05:55:20;8.60;99.90
12853;DHT22;6495;51.808;7.478;2024-03-29T05:57:47;8.60;99.90
12853;DHT22;6495;51.808;7.478;2024-03-29T06:00:15;8.60;99.90
12853;DHT22;6495;51.808;7.478;2024-03-29T06:02:43;8.60;99.90
12853;DHT22;6495;51.808;7.478;2024-03-29T06:05:12;8.60;99.90
12853;DHT22;6495;51.808;7.478;2024-03-29T06:07:40;8.60;99.90
12853;DHT22;6495;51.808;7.478;2024-03-29T06:10:08;8.60;99.90
12853;DHT22;6495;51.808;7.478;2024-03-29T06:12:36;8.60;99.90
12853;DHT22;6495;51.808;7.478;2024-03-29T06:15:06;8.60;99.90
12853;DHT22;6495;51.808;7.478;2024-03-29T06:17:51;8.60;99.90
12853;DHT22;6495;51.808;7.478;2024-03-29T06:20:18;8.60;99.90
12853;DHT22;6495;51.808;7.478;2024-03-29T06:22:47;8.60;99.90
12853;DHT22;6495;51.808;7.478;2024-03-29T06:25:14;8.60;99.90
12853;DHT22;6495;51.808;7.478;2024-03-29T06:27:42;8.60;99.90
12853;DHT22;6495;51.808;7.478;2024-03-29T06:30:14;8.60;99.90
12853;DHT22;6495;51.808;7.478;2024-03-29T06:32:42;8.60;99.90
12853;DHT22;6495;51.808;7.478;2024-03-29T06:35:11;8.60;99.90
12853;DHT22;6495;51.808;7.478;2024-03-29T06:37:38;8.60;99.90
12853;DHT22;6495;51.808;7.478;2024-03-29T06:40:08;8.60;99.90
12853;DHT22;6495;51.808;7.478;2024-03-29T06:42:37;8.60;99.90
12853;DHT22;6495;51.808;7.478;2024-03-29T06:45:06;8.60;99.90
12853;DHT22;6495;51.808;7.478;2024-03-29T06:47:34;8.60;99.90
12853;DHT22;6495;51.808;7.478;2024-03-29T06:50:04;8.60;99.90
12853;DHT22;6495;51.808;7.478;2024-03-29T06:52:32;8.60;99.90
12853;DHT22;6495;51.808;7.478;2024-03-29T06:54:59;8.60;99.90
12853;DHT22;6495;51.808;7.478;2024-03-29T06:57:28;8.60;99.90
12853;DHT22;6495;51.808;7.478;2024-03-29T06:59:57;8.70;99.90
12853;DHT22;6495;51.808;7.478;2024-03-29T07:02:24;8.70;99.90
12853;DHT22;6495;51.808;7.478;2024-03-29T07:04:52;8.70;99.90
12853;DHT22;6495;51.808;7.478;2024-03-29T07:07:19;8.70;99.90
12853;DHT22;6495;51.808;7.478;2024-03-29T07:09:46;8.70;99.90
12853;DHT22;6495;51.808;7.478;2024-03-29T07:12:13;8.70;99.90
12853;DHT22;6495;51.808;7.478;2024-03-29T07:14:43;8.70;99.90
12853;DHT22;6495;51.808;7.478;2024-03-29T07:17:10;8.70;99.90
12853;DHT22;6495;51.808;7.478;2024-03-29T07:19:37;8.70;99.90
12853;DHT22;6495;51.808;7.478;2024-03-29T07:22:05;8.70;99.90
12853;DHT22;6495;51.808;7.478;2024-03-29T07:24:32;8.70;99.90
12853;DHT22;6495;51.808;7.478;2024-03-29T07:26:59;8.70;99.90
12853;DHT22;6495;51.808;7.478;2024-03-29T07:29:27;8.70;99.90
12853;DHT22;6495;51.808;7.478;2024-03-29T07:31:55;8.80;99.90
12853;DHT22;6495;51.808;7.478;2024-03-29T07:34:23;8.80;99.90
12853;DHT22;6495;51.808;7.478;2024-03-29T07:36:51;8.80;99.90
12853;DHT22;6495;51.808;7.478;2024-03-29T07:39:18;8.70;99.90
12853;DHT22;6495;51.808;7.478;2024-03-29T07:41:53;8.70;99.90
12853;DHT22;6495;51.808;7.478;2024-03-29T07:44:21;8.70;99.90
12853;DHT22;6495;51.808;7.478;2024-03-29T07:46:48;8.70;99.90
12853;DHT22;6495;51.808;7.478;2024-03-29T07:49:15;8.70;99.90
12853;DHT22;6495;51.808;7.478;2024-03-29T07:51:47;8.70;99.90
12853;DHT22;6495;51.808;7.478;2024-03-29T07:54:14;8.70;99.90
12853;DHT22;6495;51.808;7.478;2024-03-29T07:56:41;8.70;99.90
12853;DHT22;6495;51.808;7.478;2024-03-29T07:59:10;8.60;99.90
12853;DHT22;6495;51.808;7.478;2024-03-29T08:01:37;8.60;99.90
12853;DHT22;6495;51.808;7.478;2024-03-29T08:04:07;8.60;99.90
12853;DHT22;6495;51.808;7.478;2024-03-29T08:06:34;8.60;99.90
12853;DHT22;6495;51.808;7.478;2024-03-29T08:09:02;8.60;99.90
12853;DHT22;6495;51.808;7.478;2024-03-29T08:11:30;8.60;99.90
12853;DHT22;6495;51.808;7.478;2024-03-29T08:13:57;8.60;99.90
12853;DHT22;6495;51.808;7.478;2024-03-29T08:16:26;8.60;99.90
12853;DHT22;6495;51.808;7.478;2024-03-29T08:18:53;8.60;99.90
12853;DHT22;6495;51.808;7.478;2024-03-29T08:21:20;8.60;99.90
12853;DHT22;6495;51.808;7.478;2024-03-29T08:23:48;8.60;99.90
12853;DHT22;6495;51.808;7.478;2024-03-29T08:26:16;8.60;99.90
12853;DHT22;6495;51.808;7.478;2024-03-29T08:28:45;8.70;99.90
12853;DHT22;6495;51.808;7.478;2024-03-29T08:31:13;8.70;99.90
12853;DHT22;6495;51.808;7.478;2024-03-29T08:33:42;8.70;99.90
12853;DHT22;6495;51.808;7.478;2024-03-29T08:36:09;8.70;99.90
12853;DHT22;6495;51.808;7.478;2024-03-29T08:38:37;8.80;99.90
12853;DHT22;6495;51.808;7.478;2024-03-29T08:41:09;8.80;99.90
12853;DHT22;6495;51.808;7.478;2024-03-29T08:43:36;8.90;99.90
12853;DHT22;6495;51.808;7.478;2024-03-29T08:46:04;8.90;99.90
12853;DHT22;6495;51.808;7.478;2024-03-29T08:48:31;9.00;99.90
12853;DHT22;6495;51.808;7.478;2024-03-29T08:51:00;9.00;99.90
12853;DHT22;6495;51.808;7.478;2024-03-29T08:53:28;9.10;99.90
12853;DHT22;6495;51.808;7.478;2024-03-29T08:55:55;9.20;99.90
12853;DHT22;6495;51.808;7.478;2024-03-29T08:58:23;9.30;99.90
12853;DHT22;6495;51.808;7.478;2024-03-29T09:00:54;9.40;99.90
12853;DHT22;6495;51.808;7.478;2024-03-29T09:03:22;9.40;99.90
12853;DHT22;6495;51.808;7.478;2024-03-29T09:05:51;9.50;99.90
12853;DHT22;6495;51.808;7.478;2024-03-29T09:08:23;9.50;99.90
12853;DHT22;6495;51.808;7.478;2024-03-29T09:10:55;9.60;99.90
12853;DHT22;6495;51.808;7.478;2024-03-29T09:13:24;9.70;99.90
12853;DHT22;6495;51.808;7.478;2024-03-29T09:15:52;9.80;99.90
12853;DHT22;6495;51.808;7.478;2024-03-29T09:18:22;9.90;99.90
12853;DHT22;6495;51.808;7.478;2024-03-29T09:20:58;9.90;99.90
12853;DHT22;6495;51.808;7.478;2024-03-29T09:23:30;10.00;99.90
12853;DHT22;6495;51.808;7.478;2024-03-29T09:25:58;10.00;99.90
12853;DHT22;6495;51.808;7.478;2024-03-29T09:28:51;10.10;99.90
12853;DHT22;6495;51.808;7.478;2024-03-29T09:31:18;10.20;99.90
12853;DHT22;6495;51.808;7.478;2024-03-29T09:33:46;10.20;99.90
12853;DHT22;6495;51.808;7.478;2024-03-29T09:36:21;10.20;99.90
12853;DHT22;6495;51.808;7.478;2024-03-29T09:38:51;10.20;99.90
12853;DHT22;6495;51.808;7.478;2024-03-29T09:41:21;10.30;99.90
12853;DHT22;6495;51.808;7.478;2024-03-29T09:43:59;10.20;99.90
12853;DHT22;6495;51.808;7.478;2024-03-29T09:46:31;10.30;99.90
12853;DHT22;6495;51.808;7.478;2024-03-29T09:49:32;10.30;99.90
12853;DHT22;6495;51.808;7.478;2024-03-29T09:52:32;10.30;99.90
12853;DHT22;6495;51.808;7.478;2024-03-29T09:55:02;10.30;99.90
12853;DHT22;6495;51.808;7.478;2024-03-29T09:57:31;10.30;99.90
12853;DHT22;6495;51.808;7.478;2024-03-29T10:00:02;10.30;99.90
12853;DHT22;6495;51.808;7.478;2024-03-29T10:02:56;10.30;99.90
12853;DHT22;6495;51.808;7.478;2024-03-29T10:05:24;10.30;99.90
12853;DHT22;6495;51.808;7.478;2024-03-29T10:07:55;10.40;99.90
12853;DHT22;6495;51.808;7.478;2024-03-29T10:10:25;10.40;99.90
12853;DHT22;6495;51.808;7.478;2024-03-29T10:12:54;10.40;99.90
12853;DHT22;6495;51.808;7.478;2024-03-29T10:15:24;10.50;99.90
12853;DHT22;6495;51.808;7.478;2024-03-29T10:17:54;10.50;99.90
12853;DHT22;6495;51.808;7.478;2024-03-29T10:20:22;10.50;99.90
12853;DHT22;6495;51.808;7.478;2024-03-29T10:22:55;10.60;99.90
12853;DHT22;6495;51.808;7.478;2024-03-29T10:25:33;10.60;99.90
12853;DHT22;6495;51.808;7.478;2024-03-29T10:28:00;10.60;99.90
12853;DHT22;6495;51.808;7.478;2024-03-29T10:30:29;10.70;99.90
12853;DHT22;6495;51.808;7.478;2024-03-29T10:32:57;10.70;99.90
12853;DHT22;6495;51.808;7.478;2024-03-29T10:35:32;10.70;99.90
12853;DHT22;6495;51.808;7.478;2024-03-29T10:38:02;10.80;99.90
12853;DHT22;6495;51.808;7.478;2024-03-29T10:40:34;10.80;99.90
12853;DHT22;6495;51.808;7.478;2024-03-29T10:43:02;10.80;99.90
12853;DHT22;6495;51.808;7.478;2024-03-29T10:45:34;10.90;99.90
12853;DHT22;6495;51.808;7.478;2024-03-29T10:48:15;10.90;99.90
12853;DHT22;6495;51.808;7.478;2024-03-29T10:50:44;10.90;99.90
12853;DHT22;6495;51.808;7.478;2024-03-29T10:53:14;10.90;99.90
12853;DHT22;6495;51.808;7.478;2024-03-29T10:55:44;11.00;99.90
12853;DHT22;6495;51.808;7.478;2024-03-29T10:58:19;11.10;99.90
12853;DHT22;6495;51.808;7.478;2024-03-29T11:00:54;11.10;99.90
12853;DHT22;6495;51.808;7.478;2024-03-29T11:03:31;11.20;99.90
12853;DHT22;6495;51.808;7.478;2024-03-29T11:06:12;11.30;99.90
12853;DHT22;6495;51.808;7.478;2024-03-29T11:08:43;11.40;99.90
12853;DHT22;6495;51.808;7.478;2024-03-29T11:11:17;11.40;99.90
12853;DHT22;6495;51.808;7.478;2024-03-29T11:13:56;11.50;99.90
12853;DHT22;6495;51.808;7.478;2024-03-29T11:16:31;11.50;99.90
12853;DHT22;6495;51.808;7.478;2024-03-29T11:19:08;11.60;99.90
12853;DHT22;6495;51.808;7.478;2024-03-29T11:21:36;11.70;99.90
12853;DHT22;6495;51.808;7.478;2024-03-29T11:24:10;11.70;99.90
12853;DHT22;6495;51.808;7.478;2024-03-29T11:26:39;11.80;99.90
12853;DHT22;6495;51.808;7.478;2024-03-29T11:29:18;11.80;99.90
12853;DHT22;6495;51.808;7.478;2024-03-29T11:31:47;11.90;99.90
12853;DHT22;6495;51.808;7.478;2024-03-29T11:34:19;11.90;99.90
12853;DHT22;6495;51.808;7.478;2024-03-29T11:37:09;12.00;99.90
12853;DHT22;6495;51.808;7.478;2024-03-29T11:39:40;12.00;99.90
12853;DHT22;6495;51.808;7.478;2024-03-29T11:42:16;12.10;99.90
12853;DHT22;6495;51.808;7.478;2024-03-29T11:44:44;12.10;99.90
12853;DHT22;6495;51.808;7.478;2024-03-29T11:47:18;12.20;99.90
12853;DHT22;6495;51.808;7.478;2024-03-29T11:49:55;12.20;99.90
12853;DHT22;6495;51.808;7.478;2024-03-29T11:52:29;12.30;99.90
12853;DHT22;6495;51.808;7.478;2024-03-29T11:54:58;12.30;99.90
12853;DHT22;6495;51.808;7.478;2024-03-29T11:57:31;12.40;99.90
12853;DHT22;6495;51.808;7.478;2024-03-29T12:00:01;12.40;99.90
12853;DHT22;6495;51.808;7.478;2024-03-29T12:02:33;12.50;99.90
12853;DHT22;6495;51.808;7.478;2024-03-29T12:05:10;12.60;99.90
12853;DHT22;6495;51.808;7.478;2024-03-29T12:08:05;12.70;99.90
12853;DHT22;6495;51.808;7.478;2024-03-29T12:10:53;12.90;99.90
12853;DHT22;6495;51.808;7.478;2024-03-29T12:17:41;13.20;99.90
12853;DHT22;6495;51.808;7.478;2024-03-29T12:21:33;13.40;99.90
12853;DHT22;6495;51.808;7.478;2024-03-29T12:25:21;13.60;99.90
12853;DHT22;6495;51.808;7.478;2024-03-29T12:29:01;13.80;99.90
12853;DHT22;6495;51.808;7.478;2024-03-29T12:32:10;13.90;99.90
12853;DHT22;6495;51.808;7.478;2024-03-29T12:35:43;14.00;99.90
12853;DHT22;6495;51.808;7.478;2024-03-29T12:38:35;14.00;99.90
12853;DHT22;6495;51.808;7.478;2024-03-29T12:41:38;14.10;99.90
12853;DHT22;6495;51.808;7.478;2024-03-29T12:44:24;14.10;99.90
12853;DHT22;6495;51.808;7.478;2024-03-29T12:47:18;14.20;99.90
12853;DHT22;6495;51.808;7.478;2024-03-29T12:50:05;14.20;99.90
12853;DHT22;6495;51.808;7.478;2024-03-29T12:52:40;14.20;99.90
12853;DHT22;6495;51.808;7.478;2024-03-29T12:55:29;14.20;99.90
12853;DHT22;6495;51.808;7.478;2024-03-29T12:58:12;14.20;99.90
12853;DHT22;6495;51.808;7.478;2024-03-29T13:01:00;14.20;99.90
12853;DHT22;6495;51.808;7.478;2024-03-29T13:03:36;14.20;99.90
12853;DHT22;6495;51.808;7.478;2024-03-29T13:06:09;14.20;99.90
12853;DHT22;6495;51.808;7.478;2024-03-29T13:08:51;14.10;99.90
12853;DHT22;6495;51.808;7.478;2024-03-29T13:11:56;14.10;99.90
12853;DHT22;6495;51.808;7.478;2024-03-29T13:15:03;14.10;99.90
12853;DHT22;6495;51.808;7.478;2024-03-29T13:18:20;14.10;99.90
12853;DHT22;6495;51.808;7.478;2024-03-29T13:35:08;14.30;99.90
12853;DHT22;6495;51.808;7.478;2024-03-29T13:37:39;14.50;99.90
12853;DHT22;6495;51.808;7.478;2024-03-29T13:40:43;14.50;99.90
12853;DHT22;6495;51.808;7.478;2024-03-29T13:43:10;14.70;99.90
12853;DHT22;6495;51.808;7.478;2024-03-29T13:45:38;14.70;99.90
12853;DHT22;6495;51.808;7.478;2024-03-29T13:48:12;14.80;99.90
12853;DHT22;6495;51.808;7.478;2024-03-29T13:55:37;14.90;99.90
12853;DHT22;6495;51.808;7.478;2024-03-29T13:58:06;15.00;99.90
12853;DHT22;6495;51.808;7.478;2024-03-29T14:00:44;15.10;99.90
12853;DHT22;6495;51.808;7.478;2024-03-29T14:03:11;15.10;99.90
12853;DHT22;6495;51.808;7.478;2024-03-29T14:05:39;15.20;99.90
12853;DHT22;6495;51.808;7.478;2024-03-29T14:08:06;15.20;99.90
12853;DHT22;6495;51.808;7.478;2024-03-29T14:10:34;15.30;99.90
12853;DHT22;6495;51.808;7.478;2024-03-29T14:13:03;15.40;99.90
12853;DHT22;6495;51.808;7.478;2024-03-29T14:15:32;15.50;99.90
12853;DHT22;6495;51.808;7.478;2024-03-29T14:18:25;15.50;99.90
12853;DHT22;6495;51.808;7.478;2024-03-29T14:21:05;15.60;99.90
12853;DHT22;6495;51.808;7.478;2024-03-29T14:23:32;15.60;99.90
12853;DHT22;6495;51.808;7.478;2024-03-29T14:26:13;15.70;99.90
12853;DHT22;6495;51.808;7.478;2024-03-29T14:28:42;15.70;99.90
12853;DHT22;6495;51.808;7.478;2024-03-29T14:31:09;15.70;99.90
12853;DHT22;6495;51.808;7.478;2024-03-29T14:33:37;15.70;99.90
12853;DHT22;6495;51.808;7.478;2024-03-29T14:36:04;15.70;99.90
12853;DHT22;6495;51.808;7.478;2024-03-29T14:38:41;15.70;99.90
12853;DHT22;6495;51.808;7.478;2024-03-29T14:41:09;15.60;99.90
12853;DHT22;6495;51.808;7.478;2024-03-29T14:43:36;15.50;99.90
12853;DHT22;6495;51.808;7.478;2024-03-29T14:46:05;15.40;99.90
12853;DHT22;6495;51.808;7.478;2024-03-29T14:48:33;15.20;99.90
12853;DHT22;6495;51.808;7.478;2024-03-29T14:51:00;15.20;99.90
12853;DHT22;6495;51.808;7.478;2024-03-29T14:53:28;15.10;99.90
12853;DHT22;6495;51.808;7.478;2024-03-29T14:55:56;15.10;99.90
12853;DHT22;6495;51.808;7.478;2024-03-29T14:58:25;15.00;99.90
12853;DHT22;6495;51.808;7.478;2024-03-29T15:00:52;15.00;99.90
12853;DHT22;6495;51.808;7.478;2024-03-29T15:03:21;14.90;99.90
12853;DHT22;6495;51.808;7.478;2024-03-29T15:05:50;14.90;99.90
12853;DHT22;6495;51.808;7.478;2024-03-29T15:08:20;14.80;99.90
12853;DHT22;6495;51.808;7.478;2024-03-29T15:10:56;14.80;99.90
12853;DHT22;6495;51.808;7.478;2024-03-29T15:13:39;14.70;99.90
12853;DHT22;6495;51.808;7.478;2024-03-29T15:16:32;14.70;99.90
12853;DHT22;6495;51.808;7.478;2024-03-29T15:19:01;14.60;99.90
12853;DHT22;6495;51.808;7.478;2024-03-29T15:21:46;14.60;99.90
12853;DHT22;6495;51.808;7.478;2024-03-29T15:24:25;14.50;99.90
12853;DHT22;6495;51.808;7.478;2024-03-29T15:26:54;14.50;99.90
12853;DHT22;6495;51.808;7.478;2024-03-29T15:29:24;14.40;99.90
12853;DHT22;6495;51.808;7.478;2024-03-29T15:31:51;14.40;99.90
12853;DHT22;6495;51.808;7.478;2024-03-29T15:34:19;14.40;99.90
12853;DHT22;6495;51.808;7.478;2024-03-29T15:36:48;14.40;99.90
12853;DHT22;6495;51.808;7.478;2024-03-29T15:39:17;14.30;99.90
12853;DHT22;6495;51.808;7.478;2024-03-29T15:41:47;14.30;99.90
12853;DHT22;6495;51.808;7.478;2024-03-29T15:44:15;14.20;99.90
12853;DHT22;6495;51.808;7.478;2024-03-29T15:46:43;14.20;99.90
12853;DHT22;6495;51.808;7.478;2024-03-29T15:49:11;14.20;99.90
12853;DHT22;6495;51.808;7.478;2024-03-29T15:51:40;14.20;99.90
12853;DHT22;6495;51.808;7.478;2024-03-29T15:54:07;14.20;99.90
12853;DHT22;6495;51.808;7.478;2024-03-29T15:56:38;14.20;99.90
12853;DHT22;6495;51.808;7.478;2024-03-29T16:02:46;14.20;99.90
12853;DHT22;6495;51.808;7.478;2024-03-29T16:05:21;14.20;99.90
12853;DHT22;6495;51.808;7.478;2024-03-29T16:08:10;14.20;99.90
12853;DHT22;6495;51.808;7.478;2024-03-29T16:10:54;14.20;99.90
12853;DHT22;6495;51.808;7.478;2024-03-29T16:13:33;14.20;99.90
12853;DHT22;6495;51.808;7.478;2024-03-29T16:16:02;14.20;99.90
12853;DHT22;6495;51.808;7.478;2024-03-29T16:18:39;14.10;99.90
12853;DHT22;6495;51.808;7.478;2024-03-29T16:21:09;14.10;99.90
12853;DHT22;6495;51.808;7.478;2024-03-29T16:23:38;14.10;99.90
12853;DHT22;6495;51.808;7.478;2024-03-29T16:26:05;14.10;99.90
12853;DHT22;6495;51.808;7.478;2024-03-29T16:28:35;14.10;99.90
12853;DHT22;6495;51.808;7.478;2024-03-29T16:31:04;14.00;99.90
12853;DHT22;6495;51.808;7.478;2024-03-29T16:33:52;14.00;99.90
12853;DHT22;6495;51.808;7.478;2024-03-29T16:36:18;14.00;99.90
12853;DHT22;6495;51.808;7.478;2024-03-29T16:38:47;14.00;99.90
12853;DHT22;6495;51.808;7.478;2024-03-29T16:41:16;14.00;99.90
12853;DHT22;6495;51.808;7.478;2024-03-29T16:43:46;14.00;99.90
12853;DHT22;6495;51.808;7.478;2024-03-29T16:46:15;13.90;99.90
12853;DHT22;6495;51.808;7.478;2024-03-29T16:48:47;13.90;99.90